Terminal Aerodrome Forecast
Issued by NWS Charleston, WV

Current Version | Previous Version | Text Only | Print | Product List | Glossary Off
Versions: 1 2 3 4 5 6 7 8 9 10 11 12 13 14 15 16 17 18 19 20 21 22 23 24 25 26

000
FTUS41 KRLX 161011 AAF
TAFEKN
TAF AMD
KEKN 161011Z 1610/1706 24009G17KT P6SM SCT025 BKN035
      TEMPO 1610/1614 6SM -SHSN SCT015 OVC025
     FM161400 26009KT P6SM BKN050
     FM161700 25009KT P6SM SCT050
     FM162300 24006KT P6SM FEW250=

USA.gov is the U.S. government's official web portal to all federal, state and local government web resources and services.